sensor_id;sensor_type;location;lat;lon;timestamp;temperature;humidity
42885;DHT22;28534;48.100;11.584;2023-03-31T20:06:03;20.90;60.60
42885;DHT22;28534;48.100;11.584;2023-03-31T20:11:07;20.30;51.40
42885;DHT22;28534;48.100;11.584;2023-03-31T20:16:12;20.20;48.90
42885;DHT22;28534;48.100;11.584;2023-03-31T20:21:17;20.20;51.30
42885;DHT22;28534;48.100;11.584;2023-03-31T20:26:21;20.40;51.80
42885;DHT22;28534;48.100;11.584;2023-03-31T20:31:25;20.50;52.60
42885;DHT22;28534;48.100;11.584;2023-03-31T20:36:29;20.60;53.10
42885;DHT22;28534;48.100;11.584;2023-03-31T20:41:32;20.60;53.60
42885;DHT22;28534;48.100;11.584;2023-03-31T20:46:35;20.70;53.80
42885;DHT22;28534;48.100;11.584;2023-03-31T20:51:38;20.70;54.10
42885;DHT22;28534;48.100;11.584;2023-03-31T20:56:42;20.70;54.50
42885;DHT22;28534;48.100;11.584;2023-03-31T21:01:44;20.70;54.70
42885;DHT22;28534;48.100;11.584;2023-03-31T21:06:48;20.70;54.90
42885;DHT22;28534;48.100;11.584;2023-03-31T21:11:51;20.70;55.20
42885;DHT22;28534;48.100;11.584;2023-03-31T21:16:53;20.70;55.40
42885;DHT22;28534;48.100;11.584;2023-03-31T21:21:56;20.70;55.50
42885;DHT22;28534;48.100;11.584;2023-03-31T21:26:58;20.70;55.60
42885;DHT22;28534;48.100;11.584;2023-03-31T21:31:59;20.70;55.80
42885;DHT22;28534;48.100;11.584;2023-03-31T21:37:02;20.70;55.90
42885;DHT22;28534;48.100;11.584;2023-03-31T21:42:04;20.70;56.00
42885;DHT22;28534;48.100;11.584;2023-03-31T21:47:07;20.70;56.20
42885;DHT22;28534;48.100;11.584;2023-03-31T21:52:10;20.70;56.20
42885;DHT22;28534;48.100;11.584;2023-03-31T21:57:11;20.70;56.30
42885;DHT22;28534;48.100;11.584;2023-03-31T22:02:13;20.70;56.50
42885;DHT22;28534;48.100;11.584;2023-03-31T22:07:16;20.70;56.50
42885;DHT22;28534;48.100;11.584;2023-03-31T22:12:18;20.70;56.60
42885;DHT22;28534;48.100;11.584;2023-03-31T22:17:20;20.70;56.70
42885;DHT22;28534;48.100;11.584;2023-03-31T22:22:23;20.70;56.80
42885;DHT22;28534;48.100;11.584;2023-03-31T22:27:25;20.70;56.80
42885;DHT22;28534;48.100;11.584;2023-03-31T22:32:27;20.70;56.90
42885;DHT22;28534;48.100;11.584;2023-03-31T22:37:30;20.70;56.90
42885;DHT22;28534;48.100;11.584;2023-03-31T22:42:32;20.70;57.00
42885;DHT22;28534;48.100;11.584;2023-03-31T22:47:34;20.70;57.10
42885;DHT22;28534;48.100;11.584;2023-03-31T22:52:37;20.60;57.10
42885;DHT22;28534;48.100;11.584;2023-03-31T22:57:39;20.60;57.20
42885;DHT22;28534;48.100;11.584;2023-03-31T23:02:40;20.60;57.20
42885;DHT22;28534;48.100;11.584;2023-03-31T23:07:43;20.60;57.20
42885;DHT22;28534;48.100;11.584;2023-03-31T23:12:46;20.60;57.30
42885;DHT22;28534;48.100;11.584;2023-03-31T23:17:47;20.60;57.40
42885;DHT22;28534;48.100;11.584;2023-03-31T23:22:51;20.60;57.50
42885;DHT22;28534;48.100;11.584;2023-03-31T23:27:52;20.60;57.50
42885;DHT22;28534;48.100;11.584;2023-03-31T23:32:54;20.60;57.50
42885;DHT22;28534;48.100;11.584;2023-03-31T23:37:57;20.70;57.60
42885;DHT22;28534;48.100;11.584;2023-03-31T23:42:59;20.60;57.70
42885;DHT22;28534;48.100;11.584;2023-03-31T23:48:01;20.70;57.90
42885;DHT22;28534;48.100;11.584;2023-03-31T23:53:05;20.70;58.00
42885;DHT22;28534;48.100;11.584;2023-03-31T23:58:06;20.70;58.10
